Terminal Aerodrome Forecast
Issued by NWS Bismarck, ND

Home | Current Version | Previous Version | Text Only | Print | Product List | Glossary Off
Versions: 1 2 3 4 5 6 7 8 9 10 11 12 13 14 15 16 17 18 19 20 21

768
FTUS43 KBIS 220538
TAFISN
TAF
KISN 220538Z 2206/2306 01009KT 5SM BR VCSH BKN006 OVC040
      TEMPO 2206/2210 1SM -SN BR SCT002 OVC005
     FM221100 02011KT 1SM -SN BR OVC002
     FM221300 01012KT 3SM BR VCSH OVC002
     FM221500 01012KT P6SM OVC007
     FM222100 01009KT P6SM OVC020
     FM230100 01004KT P6SM OVC035=

USA.gov is the U.S. government's official web portal to all federal, state and local government web resources and services.